createdAt,value
2018-10-17T00:01:39.033Z,99.90
2018-10-17T00:04:06.737Z,99.90
2018-10-17T00:06:34.390Z,99.90
2018-10-17T00:09:02.138Z,99.90
2018-10-17T00:11:29.856Z,99.90
2018-10-17T00:13:57.553Z,99.90
2018-10-17T00:16:25.274Z,99.90
2018-10-17T00:18:52.902Z,99.90
2018-10-17T00:21:20.554Z,99.90
2018-10-17T00:23:48.248Z,99.90
2018-10-17T00:26:15.970Z,99.90
2018-10-17T00:28:43.705Z,99.90
2018-10-17T00:31:11.497Z,99.90
2018-10-17T00:33:39.147Z,99.90
2018-10-17T00:36:06.865Z,99.90
2018-10-17T00:38:34.561Z,99.90
2018-10-17T00:41:02.279Z,99.90
2018-10-17T00:43:29.949Z,99.90
2018-10-17T00:45:57.649Z,99.90
2018-10-17T00:48:25.456Z,99.90
2018-10-17T00:50:53.137Z,99.90
2018-10-17T00:53:20.824Z,99.90
2018-10-17T00:55:48.497Z,99.90
2018-10-17T00:58:16.181Z,99.90
2018-10-17T01:00:43.887Z,99.90
2018-10-17T01:03:11.608Z,99.90
2018-10-17T01:05:39.338Z,99.90
2018-10-17T01:08:07.089Z,99.90
2018-10-17T01:10:34.728Z,99.90
2018-10-17T01:13:02.476Z,99.90
2018-10-17T01:15:30.092Z,99.90
2018-10-17T01:17:57.804Z,99.90
2018-10-17T01:20:25.512Z,99.90
2018-10-17T01:22:54.095Z,99.90
2018-10-17T01:25:21.716Z,99.90
2018-10-17T01:27:49.372Z,99.90
2018-10-17T01:30:17.121Z,99.90
2018-10-17T01:32:44.808Z,99.90
2018-10-17T01:35:12.540Z,99.90
2018-10-17T01:37:40.228Z,99.90
2018-10-17T01:40:08.475Z,99.90
2018-10-17T01:42:36.337Z,99.90
2018-10-17T01:45:05.392Z,99.90
2018-10-17T01:47:33.148Z,99.90
2018-10-17T01:50:00.808Z,99.90
2018-10-17T01:52:28.460Z,99.90
2018-10-17T01:54:56.177Z,99.90
2018-10-17T01:57:23.832Z,99.90
2018-10-17T01:59:51.551Z,99.90
2018-10-17T02:02:19.235Z,99.90
2018-10-17T02:04:46.870Z,99.90
2018-10-17T02:07:14.707Z,99.90
2018-10-17T02:09:42.335Z,99.90
2018-10-17T02:12:09.988Z,99.90
2018-10-17T02:14:37.715Z,99.90
2018-10-17T02:17:05.463Z,99.90
2018-10-17T02:19:33.147Z,99.90
2018-10-17T02:22:00.845Z,99.90
2018-10-17T02:24:28.593Z,99.90
2018-10-17T02:26:56.224Z,99.90
2018-10-17T02:29:23.832Z,99.90
2018-10-17T02:31:51.619Z,99.90
2018-10-17T02:34:19.307Z,99.90
2018-10-17T02:36:46.984Z,99.90
2018-10-17T02:39:14.704Z,99.90
2018-10-17T02:41:42.392Z,99.90
2018-10-17T02:44:10.125Z,99.90
2018-10-17T02:46:37.805Z,99.90
2018-10-17T02:49:05.620Z,99.90
2018-10-17T02:51:33.267Z,99.90
2018-10-17T02:54:01.006Z,99.90
2018-10-17T02:56:31.536Z,99.90
2018-10-17T02:58:59.303Z,99.90
2018-10-17T03:01:27.013Z,99.90
2018-10-17T03:03:54.748Z,99.90
2018-10-17T03:06:22.442Z,99.90
2018-10-17T03:08:50.172Z,99.90
2018-10-17T03:11:17.909Z,99.90
2018-10-17T03:13:45.524Z,99.90
2018-10-17T03:16:13.227Z,99.90
2018-10-17T03:18:40.965Z,99.90
2018-10-17T03:21:08.648Z,99.90
2018-10-17T03:23:36.406Z,99.90
2018-10-17T03:26:04.181Z,99.90
2018-10-17T03:28:31.837Z,99.90
2018-10-17T03:30:59.560Z,99.90
2018-10-17T03:33:27.197Z,99.90
2018-10-17T03:35:54.971Z,99.90
2018-10-17T03:38:22.622Z,99.90
2018-10-17T03:40:50.310Z,99.90
2018-10-17T03:43:18.042Z,99.90
2018-10-17T03:45:45.657Z,99.90
2018-10-17T03:48:13.368Z,99.90
2018-10-17T03:50:41.101Z,99.90
2018-10-17T03:53:09.093Z,99.90
2018-10-17T03:55:36.692Z,99.90
2018-10-17T03:58:04.994Z,99.90
2018-10-17T04:00:32.646Z,99.90
2018-10-17T04:03:00.405Z,99.90
2018-10-17T04:05:28.035Z,99.90
2018-10-17T04:07:55.783Z,99.90
2018-10-17T04:10:23.507Z,99.90
2018-10-17T04:12:51.312Z,99.90
2018-10-17T04:15:18.975Z,99.90
2018-10-17T04:17:46.686Z,99.90
2018-10-17T04:20:14.397Z,99.90
2018-10-17T04:22:54.877Z,99.90
2018-10-17T04:25:22.676Z,99.90
2018-10-17T04:27:50.993Z,99.90
2018-10-17T04:30:18.663Z,99.90
2018-10-17T04:32:46.381Z,99.90
2018-10-17T04:35:14.305Z,99.90
2018-10-17T04:37:42.101Z,99.90
2018-10-17T04:40:09.789Z,99.90
2018-10-17T04:42:37.425Z,99.90
2018-10-17T04:45:06.805Z,99.90
2018-10-17T04:47:34.773Z,99.90
2018-10-17T04:50:02.448Z,99.90
2018-10-17T04:52:30.218Z,99.90
2018-10-17T04:54:57.924Z,99.90
2018-10-17T04:57:25.577Z,99.90
2018-10-17T04:59:53.321Z,99.90
2018-10-17T05:02:21.089Z,99.90
2018-10-17T05:04:48.833Z,99.90
2018-10-17T05:07:16.664Z,99.90
2018-10-17T05:09:44.309Z,99.90
2018-10-17T05:12:12.014Z,99.90
2018-10-17T05:14:39.734Z,99.90
2018-10-17T05:17:07.511Z,99.90
2018-10-17T05:19:35.222Z,99.90
2018-10-17T05:22:02.957Z,99.90
2018-10-17T05:24:30.638Z,99.90
2018-10-17T05:26:58.433Z,99.90
2018-10-17T05:29:26.429Z,99.90
2018-10-17T05:32:00.851Z,99.90
2018-10-17T05:34:28.597Z,99.90
2018-10-17T05:36:56.352Z,99.90
2018-10-17T05:39:24.013Z,99.90
2018-10-17T05:41:51.729Z,99.90
2018-10-17T05:44:19.548Z,99.90
2018-10-17T05:46:47.282Z,99.90
2018-10-17T05:49:14.990Z,99.90
2018-10-17T05:51:42.705Z,99.90
2018-10-17T05:54:10.461Z,99.90
2018-10-17T05:56:38.168Z,99.90
2018-10-17T05:59:05.937Z,99.90
2018-10-17T06:01:33.863Z,99.90
2018-10-17T06:04:01.430Z,99.90
2018-10-17T06:06:29.121Z,99.90
2018-10-17T06:08:56.935Z,99.90
2018-10-17T06:11:24.663Z,99.90
2018-10-17T06:13:52.438Z,99.90
2018-10-17T06:16:20.113Z,99.90
2018-10-17T06:18:47.854Z,99.90
2018-10-17T06:21:15.612Z,99.90
2018-10-17T06:23:43.329Z,99.90
2018-10-17T06:26:11.053Z,99.90
2018-10-17T06:28:38.801Z,99.90
2018-10-17T06:31:06.535Z,99.90
2018-10-17T06:33:34.193Z,99.90
2018-10-17T06:36:05.415Z,99.90
2018-10-17T06:38:33.205Z,99.90
2018-10-17T06:41:00.987Z,99.90
2018-10-17T06:43:28.759Z,99.90
2018-10-17T06:45:56.380Z,99.90
2018-10-17T06:48:24.084Z,99.90
2018-10-17T06:50:51.829Z,99.90
2018-10-17T06:53:19.566Z,99.90
2018-10-17T06:55:47.243Z,99.90
2018-10-17T06:58:15.017Z,99.90
2018-10-17T07:00:42.738Z,99.90
2018-10-17T07:03:10.443Z,99.90
2018-10-17T07:05:38.222Z,99.90
2018-10-17T07:08:05.962Z,99.90
2018-10-17T07:10:33.677Z,99.90
2018-10-17T07:13:01.425Z,99.90
2018-10-17T07:15:29.258Z,99.90
2018-10-17T07:17:56.809Z,99.90
2018-10-17T07:20:24.473Z,99.90
2018-10-17T07:22:52.209Z,99.90
2018-10-17T07:25:19.917Z,99.90
2018-10-17T07:27:47.536Z,99.90
2018-10-17T07:30:22.030Z,99.90
2018-10-17T07:32:49.872Z,99.90
2018-10-17T07:35:17.672Z,99.90
2018-10-17T07:37:45.333Z,99.90
2018-10-17T07:40:13.035Z,99.90
2018-10-17T07:42:40.732Z,99.90
2018-10-17T07:45:08.566Z,99.90
2018-10-17T07:47:36.368Z,99.90
2018-10-17T07:50:04.776Z,99.90
2018-10-17T07:52:32.441Z,99.90
2018-10-17T07:55:00.110Z,99.90
2018-10-17T07:57:27.840Z,99.90
2018-10-17T07:59:55.540Z,99.90
2018-10-17T08:02:23.252Z,99.90
2018-10-17T08:04:51.065Z,99.90
2018-10-17T08:07:18.822Z,99.90
2018-10-17T08:09:46.567Z,99.90
2018-10-17T08:12:14.367Z,99.90
2018-10-17T08:14:42.141Z,99.90
2018-10-17T08:17:10.653Z,99.90
2018-10-17T08:19:38.407Z,99.90
2018-10-17T08:22:06.143Z,99.90
2018-10-17T08:24:33.851Z,99.90
2018-10-17T08:27:01.582Z,99.90
2018-10-17T08:29:29.328Z,99.90
2018-10-17T08:31:57.089Z,99.90
2018-10-17T08:34:24.732Z,99.90
2018-10-17T08:36:52.717Z,99.90
2018-10-17T08:39:20.149Z,99.90
2018-10-17T08:41:47.861Z,99.90
2018-10-17T08:44:15.528Z,99.90
2018-10-17T08:46:43.145Z,99.90
2018-10-17T08:49:10.890Z,99.90
2018-10-17T08:51:38.615Z,99.90
2018-10-17T08:54:06.358Z,99.90
2018-10-17T08:56:34.050Z,99.90
2018-10-17T08:59:01.839Z,99.90
2018-10-17T09:01:29.541Z,99.90
2018-10-17T09:03:57.305Z,99.90
2018-10-17T09:06:25.146Z,99.90
2018-10-17T09:08:52.910Z,99.90
2018-10-17T09:11:21.218Z,99.90
2018-10-17T09:13:49.729Z,99.90
2018-10-17T09:16:17.544Z,99.90
2018-10-17T09:18:45.150Z,99.90
2018-10-17T09:21:13.307Z,99.90
2018-10-17T09:23:40.667Z,99.90
2018-10-17T09:26:08.422Z,99.90
2018-10-17T09:28:36.118Z,99.90
2018-10-17T09:31:03.925Z,99.90
2018-10-17T09:33:32.212Z,99.90
2018-10-17T09:35:59.944Z,99.90
2018-10-17T09:38:28.238Z,99.90
2018-10-17T09:40:56.045Z,99.90
2018-10-17T09:43:23.887Z,99.90
2018-10-17T09:45:51.519Z,99.90
2018-10-17T09:48:19.358Z,99.90
2018-10-17T09:50:46.989Z,99.90
2018-10-17T09:53:14.748Z,99.90
2018-10-17T09:55:42.481Z,99.90
2018-10-17T09:58:10.317Z,99.90
2018-10-17T10:00:43.664Z,99.90
2018-10-17T10:03:11.536Z,99.90
2018-10-17T10:05:39.309Z,99.90
2018-10-17T10:08:07.817Z,99.90
2018-10-17T10:10:35.545Z,99.90
2018-10-17T10:13:03.798Z,99.90
2018-10-17T10:15:31.513Z,99.90
2018-10-17T10:17:59.191Z,99.90
2018-10-17T10:20:27.030Z,99.90
2018-10-17T10:22:54.836Z,99.90
2018-10-17T10:25:22.505Z,99.90
2018-10-17T10:27:50.162Z,99.90
2018-10-17T10:30:17.991Z,99.90
2018-10-17T10:32:45.621Z,99.90
2018-10-17T10:35:13.363Z,99.90
2018-10-17T10:37:41.089Z,99.90
2018-10-17T10:40:08.784Z,99.90
2018-10-17T10:42:36.425Z,99.90
2018-10-17T10:45:05.217Z,99.90
2018-10-17T10:47:32.833Z,99.90
2018-10-17T10:50:00.562Z,99.90
2018-10-17T10:52:28.321Z,99.90
2018-10-17T10:54:56.070Z,99.90
2018-10-17T10:57:23.773Z,99.90
2018-10-17T10:59:51.513Z,99.90
2018-10-17T11:02:19.324Z,99.80
2018-10-17T11:04:47.119Z,99.00
2018-10-17T11:07:14.781Z,97.80
2018-10-17T11:09:42.485Z,97.40
2018-10-17T11:12:10.191Z,98.00
2018-10-17T11:14:38.032Z,97.00
2018-10-17T11:17:05.677Z,95.60
2018-10-17T11:19:33.326Z,95.40
2018-10-17T11:22:01.105Z,97.90
2018-10-17T11:24:28.755Z,95.60
2018-10-17T11:26:56.483Z,93.50
2018-10-17T11:29:24.183Z,93.90
2018-10-17T11:31:51.919Z,94.70
2018-10-17T11:34:21.738Z,92.40
2018-10-17T11:36:49.511Z,92.30
2018-10-17T11:39:17.320Z,93.30
2018-10-17T11:41:44.929Z,92.80
2018-10-17T11:44:12.799Z,92.10
2018-10-17T11:46:40.506Z,92.40
2018-10-17T11:49:08.229Z,91.10
2018-10-17T11:51:35.896Z,93.80
2018-10-17T11:54:04.353Z,90.90
2018-10-17T11:56:32.024Z,90.10
2018-10-17T11:58:59.782Z,91.90
2018-10-17T12:01:27.821Z,92.40
2018-10-17T12:03:55.714Z,91.20
2018-10-17T12:06:23.284Z,90.50
2018-10-17T12:08:50.931Z,87.80
2018-10-17T12:11:18.830Z,90.10
2018-10-17T12:13:46.464Z,88.10
2018-10-17T12:16:14.569Z,88.40
2018-10-17T12:18:42.421Z,90.60
2018-10-17T12:21:10.162Z,87.60
2018-10-17T12:23:37.801Z,87.20
2018-10-17T12:26:05.577Z,89.10
2018-10-17T12:28:33.320Z,90.50
2018-10-17T12:31:00.904Z,86.40
2018-10-17T12:33:28.569Z,90.20
2018-10-17T12:35:56.292Z,89.70
2018-10-17T12:38:24.006Z,88.00
2018-10-17T12:40:51.834Z,94.50
2018-10-17T12:43:19.280Z,90.30
2018-10-17T12:45:47.039Z,90.00
2018-10-17T12:48:14.705Z,87.60
2018-10-17T12:50:43.386Z,90.20
2018-10-17T12:53:12.439Z,90.80
2018-10-17T12:55:40.013Z,86.70
2018-10-17T12:58:07.713Z,82.70
2018-10-17T13:00:35.380Z,83.80
2018-10-17T13:03:03.149Z,84.00
2018-10-17T13:05:30.796Z,90.90
2018-10-17T13:07:58.524Z,88.70
2018-10-17T13:10:26.260Z,92.80
2018-10-17T13:12:54.006Z,88.90
2018-10-17T13:15:21.726Z,85.20
2018-10-17T13:17:49.360Z,85.80
2018-10-17T13:20:17.052Z,86.40
2018-10-17T13:22:44.734Z,89.10
2018-10-17T13:25:12.481Z,88.30
2018-10-17T13:27:40.138Z,85.90
2018-10-17T13:30:08.347Z,85.70
2018-10-17T13:32:35.994Z,86.10
2018-10-17T13:35:04.319Z,89.00
2018-10-17T13:37:32.014Z,87.40
2018-10-17T13:39:59.641Z,87.40
2018-10-17T13:42:27.332Z,83.80
2018-10-17T13:44:54.984Z,84.70
2018-10-17T13:47:22.721Z,88.10
2018-10-17T13:49:50.413Z,84.50
2018-10-17T13:52:18.147Z,83.40
2018-10-17T13:54:46.067Z,86.40
2018-10-17T13:57:13.633Z,83.00
2018-10-17T13:59:41.361Z,83.60
2018-10-17T14:02:09.118Z,83.30
2018-10-17T14:04:36.843Z,83.80
2018-10-17T14:07:04.610Z,86.90
2018-10-17T14:09:32.269Z,83.10
2018-10-17T14:11:59.978Z,84.10
2018-10-17T14:14:27.881Z,87.60
2018-10-17T14:16:55.576Z,83.20
2018-10-17T14:19:28.239Z,83.20
2018-10-17T14:21:55.897Z,83.70
2018-10-17T14:24:23.817Z,82.90
2018-10-17T14:26:51.677Z,82.10
2018-10-17T14:29:19.436Z,84.70
2018-10-17T14:31:47.232Z,83.90
2018-10-17T14:34:14.948Z,91.20
2018-10-17T14:36:47.357Z,85.50
2018-10-17T14:39:15.139Z,81.90
2018-10-17T14:41:43.685Z,80.50
2018-10-17T14:44:12.709Z,83.30
2018-10-17T14:46:42.098Z,82.50
2018-10-17T14:49:10.278Z,82.20
2018-10-17T14:51:41.882Z,81.30
2018-10-17T14:54:11.441Z,82.00
2018-10-17T14:56:39.146Z,80.90
2018-10-17T14:59:06.892Z,83.10
2018-10-17T15:01:34.613Z,82.20
2018-10-17T15:04:02.342Z,81.90
2018-10-17T15:06:29.988Z,82.80
2018-10-17T15:08:57.669Z,83.20
2018-10-17T15:11:25.365Z,83.40
2018-10-17T15:13:53.317Z,83.40
2018-10-17T15:16:21.052Z,83.80
2018-10-17T15:18:48.773Z,84.50
2018-10-17T15:21:19.405Z,85.10
2018-10-17T15:23:47.114Z,87.80
2018-10-17T15:26:14.760Z,86.30
2018-10-17T15:28:42.517Z,86.50
2018-10-17T15:31:10.283Z,87.50
2018-10-17T15:33:37.952Z,88.10
2018-10-17T15:36:05.871Z,90.30
2018-10-17T15:38:33.517Z,88.20
2018-10-17T15:41:01.178Z,88.10
2018-10-17T15:43:28.954Z,89.40
2018-10-17T15:45:56.628Z,88.70
2018-10-17T15:48:28.640Z,90.00
2018-10-17T15:50:56.483Z,89.50
2018-10-17T15:53:24.148Z,89.90
2018-10-17T15:55:51.869Z,90.10
2018-10-17T15:58:19.633Z,90.40
2018-10-17T16:00:47.379Z,90.70
2018-10-17T16:03:15.141Z,90.80
2018-10-17T16:05:42.804Z,91.10
2018-10-17T16:08:10.648Z,91.30
2018-10-17T16:10:38.311Z,91.50
2018-10-17T16:13:06.027Z,91.90
2018-10-17T16:15:38.329Z,92.00
2018-10-17T16:18:06.596Z,92.60
2018-10-17T16:20:34.233Z,92.90
2018-10-17T16:23:02.114Z,93.10
2018-10-17T16:25:29.633Z,94.90
2018-10-17T16:27:57.338Z,94.80
2018-10-17T16:30:27.255Z,95.40
2018-10-17T16:32:54.817Z,95.40
2018-10-17T16:35:22.538Z,95.60
2018-10-17T16:37:50.357Z,96.00
2018-10-17T16:40:18.058Z,96.30
2018-10-17T16:42:45.814Z,96.50
2018-10-17T16:45:13.488Z,97.00
2018-10-17T16:47:41.386Z,97.50
2018-10-17T16:50:09.111Z,97.70
2018-10-17T16:52:36.834Z,97.80
2018-10-17T16:55:06.296Z,98.30
2018-10-17T16:57:33.984Z,98.90
2018-10-17T17:00:01.810Z,99.20
2018-10-17T17:02:29.540Z,99.70
2018-10-17T17:04:57.226Z,99.90
2018-10-17T17:07:24.945Z,99.90
2018-10-17T17:09:52.644Z,99.90
2018-10-17T17:12:20.397Z,99.90
2018-10-17T17:14:48.194Z,99.90
2018-10-17T17:17:15.912Z,99.90
2018-10-17T17:19:43.722Z,99.90
2018-10-17T17:22:11.541Z,99.90
2018-10-17T17:24:39.334Z,99.90
2018-10-17T17:27:07.137Z,99.90
2018-10-17T17:29:34.991Z,99.90
2018-10-17T17:32:02.757Z,99.90
2018-10-17T17:34:30.496Z,99.90
2018-10-17T17:36:58.197Z,99.90
2018-10-17T17:39:25.877Z,99.90
2018-10-17T17:41:53.599Z,99.90
2018-10-17T17:44:21.295Z,99.90
2018-10-17T17:46:48.917Z,99.90
2018-10-17T17:49:16.568Z,99.90
2018-10-17T17:51:45.908Z,99.90
2018-10-17T17:54:14.093Z,99.90
2018-10-17T17:56:41.889Z,99.90
2018-10-17T17:59:10.509Z,99.90
2018-10-17T18:01:39.341Z,99.90
2018-10-17T18:04:07.913Z,99.90
2018-10-17T18:06:36.323Z,99.90
2018-10-17T18:09:07.773Z,99.90
2018-10-17T18:11:35.672Z,99.90
2018-10-17T18:14:03.973Z,99.90
2018-10-17T18:16:32.836Z,99.90
2018-10-17T18:19:01.005Z,99.90
2018-10-17T18:21:29.676Z,99.90
2018-10-17T18:23:59.576Z,99.90
2018-10-17T18:26:27.548Z,99.90
2018-10-17T18:28:55.706Z,99.90
2018-10-17T18:31:25.074Z,99.90
2018-10-17T18:33:55.058Z,99.90
2018-10-17T18:36:23.367Z,99.90
2018-10-17T18:38:51.037Z,99.90
2018-10-17T18:41:20.630Z,99.90
2018-10-17T18:43:50.457Z,99.90
2018-10-17T18:46:18.365Z,99.90
2018-10-17T18:48:46.045Z,99.90
2018-10-17T18:51:16.735Z,99.90
2018-10-17T18:53:44.897Z,99.90
2018-10-17T18:56:12.654Z,99.90
2018-10-17T18:58:40.640Z,99.90
2018-10-17T19:01:08.383Z,99.90
2018-10-17T19:03:36.186Z,99.90
2018-10-17T19:06:04.181Z,99.90
2018-10-17T19:08:31.872Z,99.90
2018-10-17T19:10:59.996Z,99.90
2018-10-17T19:13:27.866Z,99.90
2018-10-17T19:15:55.892Z,99.90
2018-10-17T19:18:23.658Z,99.90
2018-10-17T19:20:51.562Z,99.90
2018-10-17T19:23:20.404Z,99.90
2018-10-17T19:25:48.289Z,99.90
2018-10-17T19:28:17.521Z,99.90
2018-10-17T19:30:45.405Z,99.90
2018-10-17T19:33:13.650Z,99.90
2018-10-17T19:35:42.446Z,99.90
2018-10-17T19:38:10.812Z,99.90
2018-10-17T19:40:38.712Z,99.90
2018-10-17T19:43:06.488Z,99.90
2018-10-17T19:45:34.425Z,99.90
2018-10-17T19:48:02.292Z,99.90
2018-10-17T19:50:29.993Z,99.90
2018-10-17T19:53:05.437Z,99.90
2018-10-17T19:55:40.683Z,99.90
2018-10-17T19:58:12.654Z,99.90
2018-10-17T20:00:44.875Z,99.90
2018-10-17T20:03:12.923Z,99.90
2018-10-17T20:05:41.712Z,99.90
2018-10-17T20:08:09.506Z,99.90
2018-10-17T20:10:37.187Z,99.90
2018-10-17T20:13:05.716Z,99.90
2018-10-17T20:15:34.796Z,99.90
2018-10-17T20:18:02.601Z,99.90
2018-10-17T20:20:30.277Z,99.90
2018-10-17T20:22:58.021Z,99.90
2018-10-17T20:25:25.758Z,99.90
2018-10-17T20:27:53.532Z,99.90
2018-10-17T20:30:21.280Z,99.90
2018-10-17T20:32:48.965Z,99.90
2018-10-17T20:35:16.763Z,99.90
2018-10-17T20:37:44.415Z,99.90
2018-10-17T20:40:12.221Z,99.90
2018-10-17T20:42:39.953Z,99.90
2018-10-17T20:45:07.754Z,99.90
2018-10-17T20:47:35.498Z,99.90
2018-10-17T20:50:03.650Z,99.90
2018-10-17T20:52:31.473Z,99.90
2018-10-17T20:54:58.981Z,99.90
2018-10-17T20:57:26.817Z,99.90
2018-10-17T20:59:54.593Z,99.90
2018-10-17T21:02:22.360Z,99.90
2018-10-17T21:04:50.030Z,99.90
2018-10-17T21:07:17.793Z,99.90
2018-10-17T21:09:45.438Z,99.90
2018-10-17T21:12:13.095Z,99.90
2018-10-17T21:14:40.801Z,99.90
2018-10-17T21:17:08.483Z,99.90
2018-10-17T21:19:36.184Z,99.90
2018-10-17T21:22:04.264Z,99.90
2018-10-17T21:24:32.160Z,99.90
2018-10-17T21:27:00.070Z,99.90
2018-10-17T21:29:27.920Z,99.90
2018-10-17T21:31:55.651Z,99.90
2018-10-17T21:34:23.346Z,99.90
2018-10-17T21:36:50.989Z,99.90
2018-10-17T21:39:18.632Z,99.90
2018-10-17T21:41:46.296Z,99.90
2018-10-17T21:44:14.182Z,99.90
2018-10-17T21:46:41.864Z,99.90
2018-10-17T21:49:09.878Z,99.90
2018-10-17T21:51:38.265Z,99.90
2018-10-17T21:54:06.252Z,99.90
2018-10-17T21:56:34.290Z,99.90
2018-10-17T21:59:02.176Z,99.90
2018-10-17T22:01:29.965Z,99.90
2018-10-17T22:03:57.668Z,99.90
2018-10-17T22:06:25.383Z,99.90
2018-10-17T22:08:53.026Z,99.90
2018-10-17T22:11:20.741Z,99.90
2018-10-17T22:13:48.428Z,99.90
2018-10-17T22:16:16.169Z,99.90
2018-10-17T22:18:43.905Z,99.90
2018-10-17T22:21:11.612Z,99.90
2018-10-17T22:23:39.288Z,99.90
2018-10-17T22:26:07.734Z,99.90
2018-10-17T22:28:35.396Z,99.90
2018-10-17T22:31:03.101Z,99.90
2018-10-17T22:33:31.807Z,99.90
2018-10-17T22:35:59.549Z,99.90
2018-10-17T22:38:27.272Z,99.90
2018-10-17T22:40:54.953Z,99.90
2018-10-17T22:43:22.705Z,99.90
2018-10-17T22:45:50.356Z,99.90
2018-10-17T22:48:18.104Z,99.90
2018-10-17T22:50:45.869Z,99.90
2018-10-17T22:53:14.145Z,99.90
2018-10-17T22:55:41.811Z,99.90
2018-10-17T22:58:09.473Z,99.90
2018-10-17T23:00:42.577Z,99.90
2018-10-17T23:03:10.248Z,99.90
2018-10-17T23:05:39.486Z,99.90
2018-10-17T23:08:08.592Z,99.90
2018-10-17T23:10:36.329Z,99.90
2018-10-17T23:13:04.284Z,99.90
2018-10-17T23:15:32.151Z,99.90
2018-10-17T23:17:59.960Z,99.90
2018-10-17T23:20:27.705Z,99.90
2018-10-17T23:22:55.430Z,99.90
2018-10-17T23:25:23.129Z,99.90
2018-10-17T23:27:50.813Z,99.90
2018-10-17T23:30:18.504Z,99.90
2018-10-17T23:32:46.209Z,99.90
2018-10-17T23:35:13.893Z,99.90
2018-10-17T23:37:41.524Z,99.90
2018-10-17T23:40:09.309Z,99.90
2018-10-17T23:42:37.651Z,99.90
2018-10-17T23:45:06.606Z,99.90
2018-10-17T23:47:34.585Z,99.90
2018-10-17T23:50:02.449Z,99.90
2018-10-17T23:52:30.117Z,99.90
2018-10-17T23:54:57.732Z,99.90
2018-10-17T23:57:25.422Z,99.90
2018-10-17T23:59:53.079Z,99.90
